Time;durP1;ratioP1;P1;durP2;ratioP2;P2;SDS_P1;SDS_P2;PMS_P1;PMS_P2;Temp;Humidity;BMP_temperature;BMP_pressure;BME280_temperature;BME280_humidity;BME280_pressure;Samples;Min_cycle;Max_cycle;Signal;HPM_P1;HPM_P2
2021/08/05 00:03:55;;;;;;;3.67;2.30;;;;;;;;;;10341239;28;20031;-81
2021/08/05 00:08:55;;;;;;;8.00;2.47;;;;;;;;;;10341412;28;20475;-81
2021/08/05 00:13:55;;;;;;;3.17;1.87;;;;;;;;;;10340313;28;20511;-81
2021/08/05 00:18:56;;;;;;;2.73;1.90;;;;;;;;;;10341414;28;20476;-82
2021/08/05 00:23:56;;;;;;;5.47;2.10;;;;;;;;;;10339822;28;20460;-81
2021/08/05 00:28:57;;;;;;;3.13;1.95;;;;;;;;;;10340051;28;20027;-82
2021/08/05 00:33:57;;;;;;;3.57;2.17;;;;;;;;;;10339586;28;20128;-82
2021/08/05 00:38:58;;;;;;;2.37;1.80;;;;;;;;;;10339469;28;20069;-82
2021/08/05 00:44:00;;;;;;;3.90;2.03;;;;;;;;;;10339485;28;20848;-82
2021/08/05 00:49:00;;;;;;;2.38;2.15;;;;;;;;;;10339327;28;20026;-82
2021/08/05 00:54:01;;;;;;;3.33;1.87;;;;;;;;;;10338774;28;20022;-82
2021/08/05 00:59:01;;;;;;;2.83;1.90;;;;;;;;;;10338319;28;20409;-83
2021/08/05 01:04:02;;;;;;;3.93;2.03;;;;;;;;;;10338316;28;20141;-83
2021/08/05 01:09:45;;;;;;;1.92;1.73;;;;;;;;;;10337474;28;20574;-82
2021/08/05 01:14:55;;;;;;;2.17;1.60;;;;;;;;;;10311723;28;20042;-82
2021/08/05 01:19:56;;;;;;;2.55;1.58;;;;;;;;;;10338057;28;20038;-82
2021/08/05 01:25:04;;;;;;;2.88;1.70;;;;;;;;;;10336935;28;20035;-82
2021/08/05 01:30:05;;;;;;;3.00;1.80;;;;;;;;;;10336550;28;20085;-84
2021/08/05 01:35:08;;;;;;;2.58;1.92;;;;;;;;;;10336418;28;20038;-82
2021/08/05 01:40:09;;;;;;;3.55;1.73;;;;;;;;;;10335905;28;20129;-82
2021/08/05 01:45:10;;;;;;;3.00;1.70;;;;;;;;;;10335771;28;20126;-82
2021/08/05 01:50:12;;;;;;;2.17;1.50;;;;;;;;;;10335859;28;20034;-82
2021/08/05 01:55:13;;;;;;;2.15;1.63;;;;;;;;;;10336842;28;20470;-82
2021/08/05 02:00:14;;;;;;;4.35;2.13;;;;;;;;;;10336686;28;20380;-81
2021/08/05 02:05:31;;;;;;;3.25;1.70;;;;;;;;;;10336365;28;20042;-82
2021/08/05 02:10:36;;;;;;;1.50;1.40;;;;;;;;;;10335502;28;20039;-81
2021/08/05 02:15:38;;;;;;;3.08;1.50;;;;;;;;;;10334335;28;20034;-82
2021/08/05 02:20:44;;;;;;;2.10;1.55;;;;;;;;;;10334579;28;20069;-82
2021/08/05 02:25:51;;;;;;;1.70;1.38;;;;;;;;;;10334155;28;20126;-82
2021/08/05 02:30:53;;;;;;;1.63;1.53;;;;;;;;;;10333775;28;20457;-82
2021/08/05 02:35:54;;;;;;;1.55;1.45;;;;;;;;;;10350575;28;20026;-82
2021/08/05 02:40:55;;;;;;;1.73;1.30;;;;;;;;;;10333602;28;20042;-82
2021/08/05 02:45:56;;;;;;;2.50;1.60;;;;;;;;;;10333453;28;20053;-81
2021/08/05 02:50:57;;;;;;;1.50;1.40;;;;;;;;;;10334769;28;20034;-81
2021/08/05 02:55:58;;;;;;;2.08;1.60;;;;;;;;;;10333254;28;20033;-83
2021/08/05 03:00:59;;;;;;;2.58;1.17;;;;;;;;;;10334313;28;20100;-82
2021/08/05 03:05:59;;;;;;;2.53;1.60;;;;;;;;;;10334612;28;20084;-82
2021/08/05 03:10:59;;;;;;;2.40;1.67;;;;;;;;;;10348621;28;20468;-81
2021/08/05 03:16:00;;;;;;;2.10;1.60;;;;;;;;;;10333139;28;20140;-83
2021/08/05 03:21:00;;;;;;;1.73;1.35;;;;;;;;;;10333619;28;20093;-82
2021/08/05 03:26:01;;;;;;;1.40;1.30;;;;;;;;;;10333832;28;20780;-82
2021/08/05 03:31:01;;;;;;;2.22;1.30;;;;;;;;;;10333580;28;20489;-82
2021/08/05 03:36:02;;;;;;;1.35;1.20;;;;;;;;;;10333586;28;20121;-82
2021/08/05 03:41:03;;;;;;;1.92;1.50;;;;;;;;;;10333105;28;20046;-82
2021/08/05 03:46:04;;;;;;;1.50;1.10;;;;;;;;;;10333606;28;20034;-82
2021/08/05 03:51:05;;;;;;;1.90;1.30;;;;;;;;;;10333000;28;20464;-82
2021/08/05 03:56:05;;;;;;;2.15;1.40;;;;;;;;;;10333556;28;20029;-81
2021/08/05 04:01:05;;;;;;;1.90;1.40;;;;;;;;;;10333040;28;20026;-82
2021/08/05 04:06:07;;;;;;;3.73;1.47;;;;;;;;;;10333083;28;20030;-82
2021/08/05 04:11:08;;;;;;;1.85;1.33;;;;;;;;;;10374682;23;20509;-82
2021/08/05 04:16:08;;;;;;;1.03;1.00;;;;;;;;;;10332002;28;20508;-82
2021/08/05 04:21:09;;;;;;;1.23;1.13;;;;;;;;;;10331680;28;20425;-82
2021/08/05 04:26:09;;;;;;;1.40;1.23;;;;;;;;;;10334762;28;20042;-82
2021/08/05 04:31:10;;;;;;;3.28;1.45;;;;;;;;;;10340553;28;20428;-82
2021/08/05 04:36:10;;;;;;;2.40;1.10;;;;;;;;;;10339028;28;20467;-82
2021/08/05 04:41:10;;;;;;;1.60;1.30;;;;;;;;;;10339251;28;20101;-82
2021/08/05 04:46:11;;;;;;;1.17;1.00;;;;;;;;;;10339594;28;20112;-81
2021/08/05 04:51:11;;;;;;;1.50;1.40;;;;;;;;;;10338988;28;20508;-82
2021/08/05 04:56:12;;;;;;;2.53;1.10;;;;;;;;;;10339008;28;20034;-82
2021/08/05 05:01:12;;;;;;;1.37;1.20;;;;;;;;;;10339153;28;20034;-82
2021/08/05 05:06:12;;;;;;;2.63;1.33;;;;;;;;;;10338525;28;20441;-82
2021/08/05 05:11:13;;;;;;;4.03;1.40;;;;;;;;;;10346906;28;20089;-82
2021/08/05 05:16:13;;;;;;;2.03;1.53;;;;;;;;;;10338520;28;20534;-82
2021/08/05 05:21:14;;;;;;;5.18;2.22;;;;;;;;;;10337269;28;20467;-82
2021/08/05 05:26:15;;;;;;;3.20;1.80;;;;;;;;;;10337496;28;20038;-80
2021/08/05 05:31:16;;;;;;;2.92;1.63;;;;;;;;;;10337439;28;20118;-81
2021/08/05 05:36:17;;;;;;;6.38;1.50;;;;;;;;;;10344289;28;20101;-82
2021/08/05 05:41:17;;;;;;;1.70;1.30;;;;;;;;;;10336561;28;20026;-83
2021/08/05 05:46:17;;;;;;;5.67;1.37;;;;;;;;;;10337248;28;20453;-85
2021/08/05 05:51:18;;;;;;;11.27;1.50;;;;;;;;;;10336705;28;20536;-81
2021/08/05 05:56:18;;;;;;;9.45;1.50;;;;;;;;;;10335977;28;20488;-82
2021/08/05 06:01:19;;;;;;;8.53;1.43;;;;;;;;;;10336205;28;20112;-82
2021/08/05 06:06:19;;;;;;;3.50;1.20;;;;;;;;;;10336444;28;20508;-85
2021/08/05 06:11:19;;;;;;;8.73;1.87;;;;;;;;;;10337266;28;20042;-85
2021/08/05 06:16:20;;;;;;;3.70;1.23;;;;;;;;;;10341268;28;20996;-85
2021/08/05 06:21:21;;;;;;;3.63;1.15;;;;;;;;;;10334388;28;20465;-86
2021/08/05 06:26:22;;;;;;;1.42;1.20;;;;;;;;;;10334890;28;20036;-85
2021/08/05 06:31:23;;;;;;;1.45;1.00;;;;;;;;;;10335061;28;20035;-85
2021/08/05 06:36:23;;;;;;;2.72;1.30;;;;;;;;;;10335229;28;20038;-85
2021/08/05 06:41:23;;;;;;;5.03;1.33;;;;;;;;;;10335771;28;20023;-84
2021/08/05 06:46:27;;;;;;;2.90;1.20;;;;;;;;;;10334932;28;20026;-85
2021/08/05 06:51:27;;;;;;;1.80;1.30;;;;;;;;;;10333954;28;20433;-85
2021/08/05 06:56:28;;;;;;;6.60;1.73;;;;;;;;;;10334180;28;20026;-84
2021/08/05 07:01:28;;;;;;;2.43;1.70;;;;;;;;;;10333200;28;20027;-85
2021/08/05 07:06:28;;;;;;;3.37;1.60;;;;;;;;;;10333797;28;20508;-84
2021/08/05 07:11:29;;;;;;;4.37;1.37;;;;;;;;;;10335347;28;20054;-85
2021/08/05 07:16:29;;;;;;;1.93;1.60;;;;;;;;;;10328105;28;20459;-85
2021/08/05 07:21:30;;;;;;;4.93;1.70;;;;;;;;;;10333855;28;20061;-84
2021/08/05 07:26:30;;;;;;;2.13;1.70;;;;;;;;;;10333275;28;20525;-84
2021/08/05 07:31:31;;;;;;;5.03;1.73;;;;;;;;;;10333150;28;20076;-84
2021/08/05 07:36:31;;;;;;;7.13;2.20;;;;;;;;;;10332232;28;20035;-84
2021/08/05 07:41:32;;;;;;;4.20;2.22;;;;;;;;;;10332984;28;20105;-84
2021/08/05 07:46:33;;;;;;;4.47;2.03;;;;;;;;;;10333765;28;20031;-84
2021/08/05 07:51:33;;;;;;;4.80;1.85;;;;;;;;;;10332548;28;20454;-84
2021/08/05 07:56:33;;;;;;;4.83;2.07;;;;;;;;;;10333469;28;20037;-84
2021/08/05 08:01:34;;;;;;;3.57;2.13;;;;;;;;;;10336800;28;20030;-85
2021/08/05 08:06:34;;;;;;;2.83;1.57;;;;;;;;;;10340835;28;20502;-82
2021/08/05 08:11:34;;;;;;;2.80;1.73;;;;;;;;;;10341515;28;20050;-83
2021/08/05 08:16:39;;;;;;;3.60;1.90;;;;;;;;;;10340309;28;20081;-83
2021/08/05 08:21:39;;;;;;;4.57;1.70;;;;;;;;;;10340787;28;20046;-83
2021/08/05 08:26:40;;;;;;;6.50;1.90;;;;;;;;;;10340086;28;20061;-83
2021/08/05 08:31:40;;;;;;;4.18;1.50;;;;;;;;;;10339686;28;20518;-83
2021/08/05 08:36:42;;;;;;;1.87;1.40;;;;;;;;;;10339706;28;20026;-83
2021/08/05 08:41:42;;;;;;;4.13;1.73;;;;;;;;;;10340551;28;20444;-83
2021/08/05 08:46:43;;;;;;;1.67;1.20;;;;;;;;;;10338963;28;20073;-83
2021/08/05 08:51:45;;;;;;;1.75;1.35;;;;;;;;;;10321822;28;20030;-83
2021/08/05 08:56:47;;;;;;;4.07;1.80;;;;;;;;;;10338623;28;20057;-83
2021/08/05 09:01:47;;;;;;;2.50;1.30;;;;;;;;;;10354072;28;20034;-83
2021/08/05 09:06:48;;;;;;;2.95;1.40;;;;;;;;;;10339250;28;20034;-83
2021/08/05 09:11:48;;;;;;;4.47;1.48;;;;;;;;;;10339531;28;20632;-83
2021/08/05 09:16:49;;;;;;;2.33;1.23;;;;;;;;;;10338435;28;20033;-83
2021/08/05 09:21:54;;;;;;;2.00;1.70;;;;;;;;;;10338886;28;20053;-83
2021/08/05 09:27:06;;;;;;;3.47;1.50;;;;;;;;;;10336873;28;20038;-83
2021/08/05 09:32:06;;;;;;;2.70;1.48;;;;;;;;;;10337731;28;20077;-83
2021/08/05 09:37:13;;;;;;;2.30;1.43;;;;;;;;;;10337480;28;20040;-83
2021/08/05 09:42:17;;;;;;;2.45;1.63;;;;;;;;;;10336539;28;20045;-83
2021/08/05 09:47:20;;;;;;;1.50;1.17;;;;;;;;;;10335575;28;20038;-83
2021/08/05 09:52:34;;;;;;;2.97;1.42;;;;;;;;;;10336418;28;20035;-83
2021/08/05 09:57:39;;;;;;;1.50;1.40;;;;;;;;;;10334814;28;20076;-83
2021/08/05 10:02:41;;;;;;;4.63;1.40;;;;;;;;;;10335383;28;20030;-82
2021/08/05 10:07:43;;;;;;;1.85;1.60;;;;;;;;;;10336068;28;20050;-81
2021/08/05 10:12:54;;;;;;;1.58;1.48;;;;;;;;;;10334995;28;20472;-82
2021/08/05 10:17:59;;;;;;;2.28;1.30;;;;;;;;;;10335315;28;20073;-82
2021/08/05 10:22:59;;;;;;;3.55;1.48;;;;;;;;;;10334331;28;20030;-82
2021/08/05 10:28:01;;;;;;;2.43;1.17;;;;;;;;;;10336045;28;20034;-82
2021/08/05 10:33:01;;;;;;;1.30;1.13;;;;;;;;;;10334550;28;20997;-82
2021/08/05 10:38:05;;;;;;;1.77;1.33;;;;;;;;;;10333335;28;20034;-82
2021/08/05 10:43:05;;;;;;;3.00;1.10;;;;;;;;;;10333769;28;20838;-83
2021/08/05 10:48:07;;;;;;;2.60;1.00;;;;;;;;;;10333850;28;20076;-83
2021/08/05 10:53:13;;;;;;;1.25;0.73;;;;;;;;;;10334543;28;20024;-82
2021/08/05 10:58:16;;;;;;;0.98;0.85;;;;;;;;;;10334161;28;20039;-83
2021/08/05 11:03:31;;;;;;;1.15;0.98;;;;;;;;;;10334716;28;20022;-83
2021/08/05 11:08:32;;;;;;;2.70;1.42;;;;;;;;;;10334342;28;20042;-82
2021/08/05 11:13:32;;;;;;;1.23;0.98;;;;;;;;;;10334106;28;20042;-83
2021/08/05 11:18:33;;;;;;;1.37;0.80;;;;;;;;;;10332726;28;20026;-83
2021/08/05 11:23:36;;;;;;;4.25;0.73;;;;;;;;;;10332557;28;20030;-83
2021/08/05 11:28:51;;;;;;;1.42;0.80;;;;;;;;;;10333864;28;20030;-83
2021/08/05 11:34:08;;;;;;;4.32;0.88;;;;;;;;;;10331596;28;20027;-83
2021/08/05 11:39:25;;;;;;;4.88;0.70;;;;;;;;;;10341325;28;20073;-82
2021/08/05 11:44:37;;;;;;;0.80;0.70;;;;;;;;;;10341286;28;20046;-84
2021/08/05 11:49:39;;;;;;;1.25;0.75;;;;;;;;;;10341140;28;20019;-84
2021/08/05 11:54:42;;;;;;;2.67;0.73;;;;;;;;;;10347332;28;20100;-84
2021/08/05 11:59:44;;;;;;;1.90;0.73;;;;;;;;;;10346949;28;20377;-85
2021/08/05 12:04:46;;;;;;;3.15;0.70;;;;;;;;;;10346564;28;20065;-84
2021/08/05 12:09:58;;;;;;;1.27;0.60;;;;;;;;;;10341253;28;20094;-84
2021/08/05 12:14:58;;;;;;;1.55;0.80;;;;;;;;;;10340400;28;20038;-84
2021/08/05 12:20:00;;;;;;;1.48;0.80;;;;;;;;;;10339399;28;20042;-83
2021/08/05 12:25:05;;;;;;;0.85;0.50;;;;;;;;;;10349415;28;20038;-84
2021/08/05 12:30:09;;;;;;;0.95;0.68;;;;;;;;;;10345313;28;20042;-84
2021/08/05 12:35:12;;;;;;;0.65;0.60;;;;;;;;;;10338130;28;20033;-84
2021/08/05 12:40:13;;;;;;;1.77;0.65;;;;;;;;;;10335829;28;20061;-86
2021/08/05 12:45:14;;;;;;;1.45;0.60;;;;;;;;;;10354547;28;20030;-85
2021/08/05 12:50:14;;;;;;;2.03;0.60;;;;;;;;;;10337923;28;20035;-85
2021/08/05 12:55:15;;;;;;;1.63;0.68;;;;;;;;;;10338486;28;21631;-85
2021/08/05 13:00:29;;;;;;;2.58;0.52;;;;;;;;;;10341639;28;20113;-85
2021/08/05 13:05:29;;;;;;;1.35;0.80;;;;;;;;;;10337741;28;20034;-85
2021/08/05 13:10:46;;;;;;;1.20;0.85;;;;;;;;;;10341073;28;20518;-85
2021/08/05 13:15:46;;;;;;;1.42;0.70;;;;;;;;;;10348879;28;20885;-84
2021/08/05 13:20:46;;;;;;;0.60;0.60;;;;;;;;;;10339079;28;20034;-83
2021/08/05 13:25:47;;;;;;;1.70;0.90;;;;;;;;;;10335759;28;20061;-84
2021/08/05 13:30:49;;;;;;;3.70;0.80;;;;;;;;;;10345454;28;20034;-84
2021/08/05 13:35:50;;;;;;;3.83;0.88;;;;;;;;;;10348996;28;20121;-84
2021/08/05 13:40:55;;;;;;;2.03;0.90;;;;;;;;;;10356754;28;20105;-84
2021/08/05 13:45:55;;;;;;;0.43;0.35;;;;;;;;;;10344560;28;20108;-84
2021/08/05 13:50:57;;;;;;;0.97;0.50;;;;;;;;;;10337796;28;20068;-84
2021/08/05 13:55:57;;;;;;;1.30;0.80;;;;;;;;;;10352138;28;20568;-84
2021/08/05 14:00:57;;;;;;;0.90;0.50;;;;;;;;;;10338610;28;20026;-84
2021/08/05 14:05:58;;;;;;;5.13;0.60;;;;;;;;;;10341212;28;20037;-84
2021/08/05 14:10:58;;;;;;;1.13;0.60;;;;;;;;;;10336437;28;20469;-84
2021/08/05 14:15:59;;;;;;;1.00;0.55;;;;;;;;;;10335724;28;20457;-84
2021/08/05 14:20:59;;;;;;;1.40;0.60;;;;;;;;;;10347919;28;20034;-83
2021/08/05 14:25:59;;;;;;;5.03;0.70;;;;;;;;;;10336262;28;20038;-83
2021/08/05 14:31:00;;;;;;;1.40;0.80;;;;;;;;;;10335033;28;20041;-84
2021/08/05 14:36:00;;;;;;;15.63;1.20;;;;;;;;;;10335195;28;20459;-81
2021/08/05 14:41:00;;;;;;;13.53;1.77;;;;;;;;;;10335352;28;20053;-81
2021/08/05 14:46:01;;;;;;;5.67;0.93;;;;;;;;;;10334481;28;20042;-82
2021/08/05 14:51:03;;;;;;;3.05;0.80;;;;;;;;;;10333182;28;20062;-81
2021/08/05 14:56:03;;;;;;;2.75;0.77;;;;;;;;;;10334082;28;20023;-82
2021/08/05 15:01:05;;;;;;;5.28;0.80;;;;;;;;;;10335912;28;20129;-82
2021/08/05 15:06:06;;;;;;;2.63;0.70;;;;;;;;;;10334099;28;20042;-82
2021/08/05 15:11:06;;;;;;;3.23;0.90;;;;;;;;;;10336418;28;20047;-82
2021/08/05 15:16:07;;;;;;;7.63;1.00;;;;;;;;;;10332901;28;20464;-82
2021/08/05 15:21:07;;;;;;;3.63;0.70;;;;;;;;;;10333242;28;20353;-82
2021/08/05 15:26:07;;;;;;;6.77;1.37;;;;;;;;;;10333036;28;20042;-82
2021/08/05 15:31:08;;;;;;;7.47;1.17;;;;;;;;;;10334028;28;20096;-82
2021/08/05 15:36:10;;;;;;;2.50;0.82;;;;;;;;;;10332704;28;20510;-82
2021/08/05 15:41:11;;;;;;;3.70;1.05;;;;;;;;;;10333416;28;20026;-82
2021/08/05 15:46:12;;;;;;;3.38;0.80;;;;;;;;;;10332873;28;20054;-82
2021/08/05 15:51:12;;;;;;;1.13;0.90;;;;;;;;;;10332825;28;20092;-82
2021/08/05 15:56:14;;;;;;;5.07;1.47;;;;;;;;;;10332863;28;20023;-82
2021/08/05 16:01:15;;;;;;;4.63;0.90;;;;;;;;;;10332729;28;20178;-82
2021/08/05 16:06:15;;;;;;;1.33;0.93;;;;;;;;;;10333521;28;20162;-82
2021/08/05 16:11:15;;;;;;;1.70;0.83;;;;;;;;;;10495687;23;20540;-82
2021/08/05 16:16:16;;;;;;;3.47;0.80;;;;;;;;;;10412851;28;20044;-82
2021/08/05 16:21:17;;;;;;;3.88;1.08;;;;;;;;;;10406408;28;20060;-83
2021/08/05 16:26:17;;;;;;;4.47;0.97;;;;;;;;;;10418702;28;20083;-82
2021/08/05 16:31:18;;;;;;;2.47;1.10;;;;;;;;;;10419574;28;20509;-83
2021/08/05 16:36:18;;;;;;;2.25;0.90;;;;;;;;;;10420548;28;20486;-82
2021/08/05 16:41:19;;;;;;;1.55;1.00;;;;;;;;;;10418404;28;20037;-82
2021/08/05 16:46:19;;;;;;;2.25;0.98;;;;;;;;;;10421369;28;20108;-82
2021/08/05 16:51:20;;;;;;;3.23;0.77;;;;;;;;;;10420938;28;20059;-82
2021/08/05 16:56:21;;;;;;;1.80;0.90;;;;;;;;;;10420220;28;20388;-82
2021/08/05 17:01:23;;;;;;;1.43;0.60;;;;;;;;;;10420664;28;20032;-83
2021/08/05 17:06:23;;;;;;;2.30;1.00;;;;;;;;;;10419643;28;20112;-80
2021/08/05 17:11:24;;;;;;;2.10;0.80;;;;;;;;;;10420366;28;20132;-81
2021/08/05 17:16:25;;;;;;;1.40;0.90;;;;;;;;;;10396178;28;20026;-80
2021/08/05 17:21:25;;;;;;;5.15;0.90;;;;;;;;;;10419997;28;20042;-81
2021/08/05 17:26:26;;;;;;;0.70;0.70;;;;;;;;;;10418998;28;20177;-81
2021/08/05 17:31:26;;;;;;;3.33;0.82;;;;;;;;;;10419238;28;20459;-81
2021/08/05 17:36:26;;;;;;;1.90;0.80;;;;;;;;;;10418109;28;20124;-80
2021/08/05 17:41:27;;;;;;;4.50;1.10;;;;;;;;;;10419061;28;20452;-81
2021/08/05 17:46:27;;;;;;;1.25;0.70;;;;;;;;;;10418282;28;20500;-81
2021/08/05 17:51:28;;;;;;;1.90;0.83;;;;;;;;;;10415017;28;20037;-81
2021/08/05 17:56:28;;;;;;;1.37;0.70;;;;;;;;;;10414008;28;20025;-81
2021/08/05 18:01:29;;;;;;;0.60;0.60;;;;;;;;;;10416344;28;20029;-81
2021/08/05 18:06:29;;;;;;;2.13;0.85;;;;;;;;;;10417769;28;20026;-81
2021/08/05 18:11:30;;;;;;;2.70;1.03;;;;;;;;;;10416077;28;20121;-81
2021/08/05 18:16:30;;;;;;;2.72;1.40;;;;;;;;;;10410984;28;20076;-81
2021/08/05 18:21:31;;;;;;;1.60;1.33;;;;;;;;;;10413959;28;20026;-81
2021/08/05 18:26:31;;;;;;;2.08;1.30;;;;;;;;;;10405781;28;20033;-80
2021/08/05 18:31:32;;;;;;;3.43;1.10;;;;;;;;;;10417292;28;20025;-81
2021/08/05 18:36:35;;;;;;;1.17;1.08;;;;;;;;;;10416770;28;20038;-81
2021/08/05 18:41:36;;;;;;;1.50;0.80;;;;;;;;;;10416174;28;20037;-81
2021/08/05 18:46:36;;;;;;;3.53;1.00;;;;;;;;;;10411767;28;20033;-81
2021/08/05 18:51:38;;;;;;;2.80;1.00;;;;;;;;;;10409364;28;20463;-81
2021/08/05 18:56:38;;;;;;;2.78;1.20;;;;;;;;;;10410378;28;20460;-81
2021/08/05 19:01:38;;;;;;;1.77;0.87;;;;;;;;;;10398883;28;20037;-81
2021/08/05 19:06:39;;;;;;;5.13;1.10;;;;;;;;;;10411156;28;20463;-81
2021/08/05 19:11:39;;;;;;;1.43;1.00;;;;;;;;;;10415538;28;20068;-81
2021/08/05 19:16:40;;;;;;;3.58;1.45;;;;;;;;;;10415461;28;20029;-80
2021/08/05 19:21:40;;;;;;;6.27;1.20;;;;;;;;;;10412522;28;20029;-81
2021/08/05 19:26:41;;;;;;;2.83;1.30;;;;;;;;;;10414382;28;20037;-80
2021/08/05 19:31:41;;;;;;;2.20;1.33;;;;;;;;;;10410354;28;20116;-81
2021/08/05 19:36:42;;;;;;;9.67;1.67;;;;;;;;;;10411244;28;21015;-81
2021/08/05 19:41:42;;;;;;;2.50;1.53;;;;;;;;;;10406924;28;20998;-81
2021/08/05 19:46:42;;;;;;;4.57;1.43;;;;;;;;;;10414544;28;20053;-81
2021/08/05 19:51:43;;;;;;;3.33;1.40;;;;;;;;;;10408139;28;20461;-81
2021/08/05 19:56:43;;;;;;;4.90;2.20;;;;;;;;;;10408893;28;20033;-82
2021/08/05 20:01:44;;;;;;;6.43;1.40;;;;;;;;;;10421391;28;20112;-81
2021/08/05 20:06:44;;;;;;;7.03;1.47;;;;;;;;;;10421498;28;20025;-81
2021/08/05 20:11:44;;;;;;;1.60;1.13;;;;;;;;;;10421025;28;20554;-81
2021/08/05 20:16:45;;;;;;;3.40;1.00;;;;;;;;;;10420334;28;20026;-81
2021/08/05 20:21:45;;;;;;;2.50;1.20;;;;;;;;;;10421099;28;20071;-81
2021/08/05 20:26:46;;;;;;;4.47;1.17;;;;;;;;;;10415505;28;20463;-82
2021/08/05 20:31:46;;;;;;;3.40;1.40;;;;;;;;;;10416078;28;20037;-81
2021/08/05 20:36:47;;;;;;;3.20;1.03;;;;;;;;;;10414894;28;20455;-81
2021/08/05 20:41:47;;;;;;;4.68;1.17;;;;;;;;;;10420845;28;20037;-81
2021/08/05 20:46:48;;;;;;;4.90;1.00;;;;;;;;;;10419694;28;20041;-81
2021/08/05 20:51:48;;;;;;;3.60;0.97;;;;;;;;;;10421016;28;20454;-81
2021/08/05 20:56:48;;;;;;;2.07;1.47;;;;;;;;;;10420296;28;20164;-81
2021/08/05 21:01:49;;;;;;;2.73;0.90;;;;;;;;;;10420096;28;20536;-81
2021/08/05 21:06:50;;;;;;;2.45;1.13;;;;;;;;;;10420294;28;20042;-82
2021/08/05 21:11:50;;;;;;;5.05;1.00;;;;;;;;;;10420504;28;20060;-81
2021/08/05 21:16:51;;;;;;;1.85;1.15;;;;;;;;;;10419242;28;20120;-81
2021/08/05 21:21:51;;;;;;;1.13;1.03;;;;;;;;;;10419336;28;20038;-82
2021/08/05 21:26:54;;;;;;;1.15;1.05;;;;;;;;;;10419583;28;20135;-82
2021/08/05 21:31:55;;;;;;;2.42;1.17;;;;;;;;;;10419468;28;20079;-82
2021/08/05 21:36:55;;;;;;;1.23;0.80;;;;;;;;;;10418646;28;20112;-82
2021/08/05 21:41:55;;;;;;;3.00;1.00;;;;;;;;;;10419239;28;20120;-81
2021/08/05 21:46:56;;;;;;;2.27;0.87;;;;;;;;;;10418322;28;21003;-81
2021/08/05 21:51:56;;;;;;;2.30;1.20;;;;;;;;;;10416444;28;20124;-82
2021/08/05 21:56:57;;;;;;;2.23;1.20;;;;;;;;;;10418828;28;20026;-81
2021/08/05 22:01:58;;;;;;;2.20;1.10;;;;;;;;;;10416354;28;20557;-80
2021/08/05 22:06:59;;;;;;;3.13;1.10;;;;;;;;;;10402979;28;20038;-81
2021/08/05 22:11:59;;;;;;;2.75;1.00;;;;;;;;;;10411894;28;20395;-82
2021/08/05 22:17:00;;;;;;;5.82;1.58;;;;;;;;;;10409169;28;20139;-82
2021/08/05 22:22:00;;;;;;;8.98;1.52;;;;;;;;;;10407829;28;20029;-81
2021/08/05 22:27:01;;;;;;;9.53;1.37;;;;;;;;;;10409786;28;20140;-82
2021/08/05 22:32:01;;;;;;;3.10;0.90;;;;;;;;;;10417276;28;20047;-82
2021/08/05 22:37:02;;;;;;;1.65;0.80;;;;;;;;;;10415945;28;20032;-82
2021/08/05 22:42:03;;;;;;;1.70;1.05;;;;;;;;;;10416037;28;20040;-82
2021/08/05 22:47:04;;;;;;;2.55;0.90;;;;;;;;;;10416502;28;20110;-82
2021/08/05 22:52:05;;;;;;;2.95;0.70;;;;;;;;;;10416048;28;20060;-82
2021/08/05 22:57:05;;;;;;;1.35;0.88;;;;;;;;;;10414466;28;20037;-82
2021/08/05 23:02:05;;;;;;;7.63;0.80;;;;;;;;;;10413780;28;20025;-82
2021/08/05 23:07:06;;;;;;;0.97;0.80;;;;;;;;;;10415740;28;20029;-81
2021/08/05 23:12:06;;;;;;;0.90;0.80;;;;;;;;;;10415184;28;20132;-81
2021/08/05 23:17:07;;;;;;;1.42;0.75;;;;;;;;;;10414904;28;20056;-81
2021/08/05 23:22:07;;;;;;;2.10;0.70;;;;;;;;;;10415190;28;20049;-81
2021/08/05 23:27:08;;;;;;;2.07;0.80;;;;;;;;;;10414738;28;20088;-81
2021/08/05 23:32:08;;;;;;;0.88;0.75;;;;;;;;;;10415414;28;20056;-81
2021/08/05 23:37:09;;;;;;;2.15;0.70;;;;;;;;;;10414798;28;20451;-81
2021/08/05 23:42:09;;;;;;;2.80;0.93;;;;;;;;;;10415392;28;20491;-82
2021/08/05 23:47:09;;;;;;;5.40;0.60;;;;;;;;;;10414603;28;20033;-81
2021/08/05 23:52:10;;;;;;;2.27;0.97;;;;;;;;;;10415091;28;20502;-82
2021/08/05 23:57:11;;;;;;;1.40;0.77;;;;;;;;;;10413427;28;20040;-82
